Time;durP1;ratioP1;P1;durP2;ratioP2;P2;SDS_P1;SDS_P2;PMS_P1;PMS_P2;Temp;Humidity;BMP_temperature;BMP_pressure;BME280_temperature;BME280_humidity;BME280_pressure;Samples;Min_cycle;Max_cycle;Signal;HPM_P1;HPM_P2
2022/09/28 00:01:53;;;;;;;20.48;8.73;;;;;;;7.12;100.00;99105.13;6000661;28;20541;-65
2022/09/28 00:04:48;;;;;;;20.08;8.43;;;;;;;7.14;100.00;99105.81;6000895;28;20117;-65
2022/09/28 00:07:43;;;;;;;19.63;8.80;;;;;;;7.03;100.00;99095.59;6001051;28;20032;-65
2022/09/28 00:10:40;;;;;;;20.03;9.57;;;;;;;7.02;100.00;99082.56;6000060;28;20042;-65
2022/09/28 00:13:35;;;;;;;18.23;8.98;;;;;;;7.05;100.00;99076.97;6000247;28;20050;-65
2022/09/28 00:16:33;;;;;;;25.47;10.13;;;;;;;7.06;100.00;99095.28;6000884;28;20054;-65
2022/09/28 00:19:29;;;;;;;24.25;10.77;;;;;;;6.94;100.00;99075.50;6001245;28;20402;-65
2022/09/28 00:22:24;;;;;;;22.33;9.97;;;;;;;7.00;100.00;99090.66;6000325;28;20035;-65
2022/09/28 00:25:20;;;;;;;26.00;10.93;;;;;;;6.94;100.00;99062.31;6000281;28;20041;-65
2022/09/28 00:28:16;;;;;;;27.70;11.02;;;;;;;7.04;100.00;99081.41;6012939;28;20355;-65
2022/09/28 00:31:11;;;;;;;21.90;9.47;;;;;;;6.95;100.00;99071.88;6021391;28;20038;-65
2022/09/28 00:34:07;;;;;;;24.48;10.38;;;;;;;7.01;100.00;99070.41;6000349;28;20511;-65
2022/09/28 00:37:04;;;;;;;27.20;11.13;;;;;;;6.93;100.00;99052.75;6000662;28;20033;-65
2022/09/28 00:40:00;;;;;;;26.38;9.75;;;;;;;6.89;100.00;99050.63;6000024;28;20034;-65
2022/09/28 00:42:56;;;;;;;26.33;11.43;;;;;;;6.89;100.00;99053.25;5999922;28;20089;-65
2022/09/28 00:45:58;;;;;;;23.23;9.47;;;;;;;6.88;100.00;99048.97;5999889;28;20486;-65
2022/09/28 00:48:59;;;;;;;21.55;9.35;;;;;;;6.83;100.00;99038.91;6000230;28;20042;-65
2022/09/28 00:51:54;;;;;;;20.15;8.95;;;;;;;6.85;100.00;99044.84;5998244;28;20035;-65
2022/09/28 00:54:50;;;;;;;20.30;9.77;;;;;;;6.86;100.00;99046.50;5999987;28;20045;-65
2022/09/28 00:57:49;;;;;;;19.90;9.32;;;;;;;6.88;100.00;99049.78;6015016;28;20045;-65
2022/09/28 01:00:44;;;;;;;22.42;9.60;;;;;;;6.82;100.00;99045.16;6021291;28;20114;-65
2022/09/28 01:03:44;;;;;;;23.43;10.23;;;;;;;6.77;100.00;99034.28;6011771;28;20370;-65
2022/09/28 01:06:39;;;;;;;20.83;9.32;;;;;;;6.86;100.00;99043.88;5999844;28;20030;-65
2022/09/28 01:09:37;;;;;;;17.17;8.17;;;;;;;6.66;100.00;99031.97;5999958;28;20351;-65
2022/09/28 01:12:32;;;;;;;20.30;7.95;;;;;;;6.72;100.00;99031.34;5998919;28;20135;-65
2022/09/28 01:15:29;;;;;;;16.83;7.70;;;;;;;6.56;100.00;99012.88;5999248;28;20542;-65
2022/09/28 01:18:33;;;;;;;15.23;6.72;;;;;;;6.58;100.00;99017.00;5999626;28;20118;-65
2022/09/28 01:21:37;;;;;;;18.10;8.20;;;;;;;6.53;100.00;99003.50;5997538;28;20100;-65
2022/09/28 01:25:08;;;;;;;23.23;8.77;;;;;;;6.58;100.00;99011.72;5997992;28;20118;-65
2022/09/28 01:28:05;;;;;;;20.05;7.80;;;;;;;6.42;100.00;98993.28;5999009;28;20038;-65
2022/09/28 01:31:06;;;;;;;19.58;7.72;;;;;;;6.47;100.00;99003.31;5998875;28;20478;-65
2022/09/28 01:34:15;;;;;;;17.38;8.23;;;;;;;6.48;100.00;98984.72;6013452;28;20474;-65
2022/09/28 01:37:12;;;;;;;15.15;7.95;;;;;;;6.58;100.00;98987.19;6013803;28;20454;-65
2022/09/28 01:40:09;;;;;;;16.70;7.65;;;;;;;6.81;100.00;99001.38;5997154;28;20170;-65
2022/09/28 01:43:13;;;;;;;17.52;7.20;;;;;;;6.42;100.00;98984.53;5997973;28;20019;-65
2022/09/28 01:46:19;;;;;;;18.10;7.00;;;;;;;6.36;100.00;99001.00;5997405;28;20541;-65
2022/09/28 01:49:25;;;;;;;13.23;6.68;;;;;;;6.25;100.00;98981.06;5997869;28;20063;-65
2022/09/28 01:52:33;;;;;;;16.15;6.65;;;;;;;6.41;100.00;98988.19;5998243;28;20058;-65
2022/09/28 01:55:44;;;;;;;15.32;7.45;;;;;;;6.43;100.00;98975.69;6012373;28;20678;-65
2022/09/28 01:58:48;;;;;;;16.75;7.13;;;;;;;6.50;100.00;98971.41;6003713;28;20466;-65
2022/09/28 02:01:48;;;;;;;16.30;6.43;;;;;;;6.50;100.00;98966.13;6009012;28;20093;-65
2022/09/28 02:04:53;;;;;;;13.05;6.03;;;;;;;6.69;100.00;98986.88;5997443;28;20382;-65
2022/09/28 02:07:58;;;;;;;14.77;7.07;;;;;;;6.76;100.00;98982.63;5998347;28;20117;-65
2022/09/28 02:10:59;;;;;;;11.60;6.00;;;;;;;6.80;100.00;98976.03;5998185;28;20660;-65
2022/09/28 02:14:04;;;;;;;;;;;;;;;6.90;100.00;98974.03;5997756;28;20109;-65
2022/09/28 02:17:00;;;;;;;10.90;4.95;;;;;;;6.83;100.00;98956.41;5993992;28;19941;-65
2022/09/28 02:19:56;;;;;;;12.98;6.40;;;;;;;6.95;100.00;98969.13;5998219;28;20037;-65
2022/09/28 02:22:54;;;;;;;14.18;5.90;;;;;;;6.95;100.00;98960.38;6013020;28;20502;-65
2022/09/28 02:25:57;;;;;;;11.98;5.65;;;;;;;6.97;100.00;98964.50;5998118;28;20130;-65
2022/09/28 02:28:52;;;;;;;18.48;6.72;;;;;;;6.94;100.00;98954.28;5997432;28;20038;-65
2022/09/28 02:31:50;;;;;;;12.90;5.97;;;;;;;6.90;100.00;98947.69;5996771;28;20063;-65
2022/09/28 02:34:45;;;;;;;13.15;5.38;;;;;;;7.03;100.00;98963.00;5998072;28;20101;-65
2022/09/28 02:37:41;;;;;;;11.95;6.15;;;;;;;7.02;100.00;98956.91;5998480;28;20074;-65
2022/09/28 02:40:37;;;;;;;13.07;5.25;;;;;;;7.04;100.00;98956.72;5997825;28;21243;-65
2022/09/28 02:43:41;;;;;;;15.00;5.95;;;;;;;7.05;100.00;98951.31;5998915;28;20034;-65
2022/09/28 02:46:52;;;;;;;12.60;5.18;;;;;;;7.01;100.00;98952.63;5998264;28;20481;-65
2022/09/28 02:49:57;;;;;;;14.18;6.15;;;;;;;7.02;100.00;98949.00;5997074;28;20153;-65
2022/09/28 02:53:05;;;;;;;15.10;6.05;;;;;;;7.06;100.00;98947.69;5996351;28;20101;-65
2022/09/28 02:56:12;;;;;;;13.23;5.60;;;;;;;7.09;100.00;98943.91;5998327;28;20027;-65
2022/09/28 02:59:38;;;;;;;11.60;5.63;;;;;;;7.14;100.00;98950.31;6020052;28;20034;-65
2022/09/28 03:02:42;;;;;;;11.80;4.88;;;;;;;7.12;100.00;98947.00;5988171;28;20121;-65
2022/09/28 03:05:59;;;;;;;12.20;5.15;;;;;;;7.01;100.00;98923.63;5998448;28;20066;-65
2022/09/28 03:09:06;;;;;;;11.50;5.43;;;;;;;7.14;100.00;98942.41;5997165;28;20042;-65
2022/09/28 03:12:08;;;;;;;12.52;5.85;;;;;;;7.13;100.00;98942.56;6000871;28;20074;-65
2022/09/28 03:15:26;;;;;;;11.98;5.47;;;;;;;7.03;100.00;98921.69;6010375;28;20113;-65
2022/09/28 03:18:21;;;;;;;13.38;5.65;;;;;;;7.13;100.00;98935.47;5989548;28;20054;-65
2022/09/28 03:21:16;;;;;;;9.60;4.60;;;;;;;7.14;100.00;98936.31;6001734;28;20035;-65
2022/09/28 03:24:12;;;;;;;9.57;4.37;;;;;;;7.19;100.00;98937.44;6001764;28;20390;-65
2022/09/28 03:27:08;;;;;;;9.80;4.50;;;;;;;7.18;100.00;98934.97;6002313;28;20037;-65
2022/09/28 03:30:04;;;;;;;9.20;4.68;;;;;;;7.26;100.00;98931.47;6001717;28;20041;-65
2022/09/28 03:33:01;;;;;;;8.55;4.43;;;;;;;7.14;100.00;98923.97;6001140;28;20129;-65
2022/09/28 03:35:56;;;;;;;11.40;4.65;;;;;;;7.15;100.00;98919.47;6003434;28;20054;-65
2022/09/28 03:38:55;;;;;;;10.33;4.77;;;;;;;7.17;100.00;98915.69;6024956;28;20034;-65
2022/09/28 03:41:50;;;;;;;8.75;4.05;;;;;;;7.16;100.00;98911.44;6007731;28;20025;-65
2022/09/28 03:44:45;;;;;;;8.43;4.30;;;;;;;7.19;100.00;98920.81;6001478;28;20122;-65
2022/09/28 03:47:45;;;;;;;9.27;4.47;;;;;;;7.18;100.00;98908.59;6001330;28;20537;-65
2022/09/28 03:50:40;;;;;;;9.95;4.45;;;;;;;7.18;100.00;98909.44;6000866;28;20034;-65
2022/09/28 03:53:36;;;;;;;8.75;4.30;;;;;;;7.19;100.00;98911.09;6001299;28;20116;-66
2022/09/28 03:56:31;;;;;;;10.65;4.22;;;;;;;7.28;100.00;98908.44;6000581;28;20085;-65
2022/09/28 03:59:27;;;;;;;8.55;4.18;;;;;;;7.30;100.00;98911.72;6016349;28;20027;-66
2022/09/28 04:02:23;;;;;;;10.90;4.27;;;;;;;7.27;100.00;98896.22;6001669;28;20035;-66
2022/09/28 04:05:18;;;;;;;12.10;4.57;;;;;;;7.31;100.00;98913.38;5994937;28;20027;-66
2022/09/28 04:08:13;;;;;;;8.83;3.93;;;;;;;7.33;100.00;98912.22;6000240;28;20038;-65
2022/09/28 04:11:08;;;;;;;9.13;4.07;;;;;;;7.31;100.00;98902.81;6000536;28;20031;-66
2022/09/28 04:14:04;;;;;;;10.03;4.07;;;;;;;7.23;100.00;98889.66;5999995;28;20030;-66
2022/09/28 04:16:59;;;;;;;7.97;3.73;;;;;;;7.34;100.00;98905.13;6000795;28;20036;-66
2022/09/28 04:19:54;;;;;;;8.73;4.07;;;;;;;7.26;100.00;98889.31;6000736;28;20596;-66
2022/09/28 04:22:50;;;;;;;12.37;4.17;;;;;;;7.24;100.00;98886.84;5998927;28;20130;-66
2022/09/28 04:25:50;;;;;;;8.80;4.13;;;;;;;7.39;100.00;98905.44;6000599;28;20043;-65
2022/09/28 04:32:00;;;;;;;7.53;3.92;;;;;;;7.33;100.00;98883.22;5999908;28;20038;-66
2022/09/28 04:34:55;;;;;;;8.93;4.33;;;;;;;7.42;100.00;98886.63;5999680;28;20066;-66
2022/09/28 04:37:51;;;;;;;10.03;4.07;;;;;;;7.41;100.00;98891.09;6000550;28;20045;-67
2022/09/28 04:40:48;;;;;;;7.23;3.70;;;;;;;7.36;100.00;98892.59;5999642;28;20286;-66
2022/09/28 04:43:46;;;;;;;10.35;4.25;;;;;;;7.28;100.00;98876.81;6004883;28;20353;-67
2022/09/28 04:46:41;;;;;;;9.68;4.60;;;;;;;7.39;100.00;98884.34;6000038;28;20060;-67
2022/09/28 04:49:37;;;;;;;9.57;3.88;;;;;;;7.38;100.00;98895.88;6000288;28;20034;-66
2022/09/28 04:52:35;;;;;;;8.60;4.20;;;;;;;7.25;100.00;98883.22;5999146;28;20146;-67
2022/09/28 04:55:31;;;;;;;12.27;4.70;;;;;;;7.33;100.00;98895.56;5999345;28;20031;-67
2022/09/28 04:58:27;;;;;;;10.70;3.97;;;;;;;7.38;100.00;98893.22;6004903;28;20041;-66
2022/09/28 05:01:23;;;;;;;9.52;4.88;;;;;;;7.34;100.00;98886.66;5998879;28;20043;-66
2022/09/28 05:04:18;;;;;;;10.70;4.13;;;;;;;7.29;100.00;98889.78;5998820;28;20050;-66
2022/09/28 05:07:13;;;;;;;12.13;4.67;;;;;;;7.24;100.00;98880.75;5999239;28;20565;-66
2022/09/28 05:10:10;;;;;;;10.47;4.77;;;;;;;7.26;100.00;98890.13;5999089;28;20486;-65
2022/09/28 05:13:06;;;;;;;10.75;4.93;;;;;;;7.33;100.00;98882.38;5999001;28;20504;-66
2022/09/28 05:16:01;;;;;;;10.32;4.25;;;;;;;7.17;100.00;98870.88;5998992;28;20038;-66
2022/09/28 05:18:56;;;;;;;9.03;4.23;;;;;;;7.29;100.00;98894.25;6014132;28;20038;-66
2022/09/28 05:21:52;;;;;;;11.40;4.23;;;;;;;7.22;100.00;98888.84;5999367;28;20442;-66
2022/09/28 05:24:47;;;;;;;8.97;4.13;;;;;;;7.22;100.00;98886.22;5999227;28;20097;-66
2022/09/28 05:27:43;;;;;;;9.43;4.32;;;;;;;7.17;100.00;98867.44;5998817;28;20113;-65
2022/09/28 05:30:38;;;;;;;8.63;4.50;;;;;;;7.20;100.00;98881.09;5998934;28;20034;-65
2022/09/28 05:33:33;;;;;;;13.23;4.50;;;;;;;7.27;100.00;98888.31;5998045;28;20063;-65
2022/09/28 05:36:29;;;;;;;12.23;5.50;;;;;;;7.15;100.00;98874.69;5999379;28;20833;-65
2022/09/28 05:39:25;;;;;;;9.93;4.90;;;;;;;7.28;100.00;98879.44;5999003;28;20278;-65
2022/09/28 05:42:20;;;;;;;11.83;4.97;;;;;;;7.16;100.00;98868.44;5998768;28;20529;-65
2022/09/28 05:45:15;;;;;;;12.63;4.97;;;;;;;7.20;100.00;98870.53;5998994;28;20030;-65
2022/09/28 05:48:10;;;;;;;11.47;5.50;;;;;;;7.20;100.00;98875.81;5998415;28;20039;-65
2022/09/28 05:51:06;;;;;;;12.30;5.10;;;;;;;7.32;100.00;98875.44;5998537;28;20749;-65
2022/09/28 05:54:01;;;;;;;13.07;6.00;;;;;;;7.28;100.00;98887.34;5999034;28;20047;-65
2022/09/28 05:56:56;;;;;;;13.25;5.63;;;;;;;7.17;100.00;98867.44;5998906;28;20077;-65
2022/09/28 05:59:52;;;;;;;14.03;5.43;;;;;;;7.26;100.00;98884.03;5998722;28;20478;-65
2022/09/28 06:03:04;;;;;;;13.90;5.33;;;;;;;7.26;100.00;98870.84;5998117;28;20030;-65
2022/09/28 06:06:01;;;;;;;13.60;4.80;;;;;;;7.30;100.00;98880.06;5990532;28;20035;-65
2022/09/28 06:08:56;;;;;;;15.77;5.50;;;;;;;7.23;100.00;98887.84;5998572;28;20602;-66
2022/09/28 06:11:51;;;;;;;11.30;5.60;;;;;;;7.24;100.00;98875.47;5998290;28;20058;-66
2022/09/28 06:14:48;;;;;;;11.60;5.60;;;;;;;7.15;100.00;98870.25;5998319;28;20125;-66
2022/09/28 06:17:43;;;;;;;10.98;5.32;;;;;;;7.16;100.00;98876.34;6013372;28;20343;-66
2022/09/28 06:20:41;;;;;;;13.10;4.77;;;;;;;7.25;100.00;98877.13;6016346;28;20470;-66
2022/09/28 06:23:37;;;;;;;9.73;4.68;;;;;;;7.31;100.00;98889.66;5998394;28;20058;-66
2022/09/28 06:26:32;;;;;;;9.33;4.40;;;;;;;7.26;100.00;98884.03;5998720;28;20490;-66
2022/09/28 06:29:28;;;;;;;10.43;4.63;;;;;;;7.25;100.00;98875.31;5998315;28;20286;-66
2022/09/28 06:32:23;;;;;;;13.55;5.25;;;;;;;7.23;100.00;98873.84;5997447;28;20035;-65
2022/09/28 06:35:20;;;;;;;11.83;5.73;;;;;;;7.24;100.00;98883.38;5998571;28;20387;-66
2022/09/28 06:38:15;;;;;;;11.55;5.28;;;;;;;7.27;100.00;98886.50;5998145;28;20086;-66
2022/09/28 06:41:11;;;;;;;14.27;5.80;;;;;;;7.28;100.00;98892.63;5997825;28;20474;-66
2022/09/28 06:44:06;;;;;;;12.73;4.90;;;;;;;7.50;100.00;98882.13;5998412;28;20066;-66
2022/09/28 06:47:02;;;;;;;12.00;5.55;;;;;;;7.59;100.00;98885.56;6003356;28;20161;-66
2022/09/28 06:49:57;;;;;;;9.98;4.70;;;;;;;7.60;100.00;98898.59;6002446;28;20050;-66
2022/09/28 06:52:53;;;;;;;13.15;5.18;;;;;;;7.52;100.00;98876.69;6006561;28;20034;-67
2022/09/28 06:55:48;;;;;;;11.63;4.72;;;;;;;7.65;100.00;98890.97;5999191;28;20053;-67
2022/09/28 06:58:44;;;;;;;8.83;4.80;;;;;;;7.58;100.00;98873.38;6007488;28;20089;-67
2022/09/28 07:01:39;;;;;;;9.77;4.43;;;;;;;7.61;100.00;98889.66;5999030;28;20318;-67
2022/09/28 07:04:34;;;;;;;9.20;4.80;;;;;;;7.73;100.00;98887.47;6000505;28;20041;-66
2022/09/28 07:07:30;;;;;;;11.47;4.47;;;;;;;7.91;100.00;98897.78;5999304;28;20031;-66
2022/09/28 07:10:27;;;;;;;10.50;4.50;;;;;;;7.82;100.00;98875.06;5999149;28;20026;-66
2022/09/28 07:13:25;;;;;;;10.65;4.63;;;;;;;7.92;100.00;98886.22;6008597;28;20137;-66
2022/09/28 07:16:20;;;;;;;10.05;4.50;;;;;;;7.94;100.00;98887.66;6006458;28;20042;-66
2022/09/28 07:19:15;;;;;;;9.80;4.30;;;;;;;8.05;100.00;98902.28;5999161;28;20466;-66
2022/09/28 07:22:13;;;;;;;8.97;4.37;;;;;;;8.01;100.00;98886.00;5998565;28;20119;-66
2022/09/28 07:25:08;;;;;;;9.18;3.78;;;;;;;8.25;100.00;98903.50;5999753;28;20035;-66
2022/09/28 07:28:04;;;;;;;11.50;3.87;;;;;;;8.27;100.00;98904.16;6000248;28;20676;-66
2022/09/28 07:31:02;;;;;;;11.07;3.37;;;;;;;8.14;100.00;98894.16;5998934;28;20026;-65
2022/09/28 07:33:57;;;;;;;5.15;2.85;;;;;;;8.28;100.00;98898.72;5998740;28;20286;-66
2022/09/28 07:36:56;;;;;;;7.60;3.70;;;;;;;8.43;100.00;98906.69;6002557;28;20039;-66
2022/09/28 07:43:05;;;;;;;7.30;3.50;;;;;;;8.63;100.00;98917.59;5989303;28;20031;-66
2022/09/28 07:46:01;;;;;;;8.20;3.38;;;;;;;8.76;100.00;98904.59;5997892;28;20472;-65
2022/09/28 07:48:57;;;;;;;10.67;3.27;;;;;;;8.74;100.00;98906.59;5998841;28;20026;-65
2022/09/28 07:51:52;;;;;;;9.32;3.58;;;;;;;8.81;100.00;98907.50;5999267;28;20049;-65
2022/09/28 07:54:50;;;;;;;10.53;3.57;;;;;;;8.73;100.00;98913.69;5998484;28;20039;-65
2022/09/28 07:57:47;;;;;;;7.68;3.63;;;;;;;8.83;100.00;98918.75;5997851;28;20278;-65
2022/09/28 08:00:46;;;;;;;7.53;3.22;;;;;;;8.80;100.00;98929.69;5997884;28;20110;-65
2022/09/28 08:03:44;;;;;;;4.93;2.92;;;;;;;8.70;100.00;98918.50;5999399;28;20034;-65
2022/09/28 08:06:39;;;;;;;6.93;2.75;;;;;;;8.63;100.00;98912.31;5998560;28;20035;-65
2022/09/28 08:09:34;;;;;;;6.35;3.17;;;;;;;8.64;100.00;98935.88;5998126;28;20038;-65
2022/09/28 08:12:30;;;;;;;10.20;2.57;;;;;;;8.60;100.00;98933.78;5997659;28;20055;-65
2022/09/28 08:15:27;;;;;;;8.68;2.90;;;;;;;8.47;100.00;98923.00;5989069;28;20395;-65
2022/09/28 08:18:31;;;;;;;7.43;2.90;;;;;;;8.60;100.00;98944.34;5994994;28;20038;-65
2022/09/28 08:21:45;;;;;;;5.60;2.70;;;;;;;8.54;100.00;98945.88;5997019;28;20052;-65
2022/09/28 08:24:40;;;;;;;5.53;3.25;;;;;;;8.55;100.00;98947.53;5996677;28;20077;-65
2022/09/28 08:27:36;;;;;;;8.53;3.80;;;;;;;8.35;100.00;98935.78;5994596;28;20058;-66
2022/09/28 08:30:34;;;;;;;8.45;3.15;;;;;;;8.26;100.00;98942.09;5997486;28;20065;-67
2022/09/28 08:33:29;;;;;;;14.27;6.00;;;;;;;8.12;100.00;98943.69;6000932;28;20074;-67
2022/09/28 08:36:24;;;;;;;51.30;18.90;;;;;;;8.00;100.00;98945.06;6000371;28;20049;-68
2022/09/28 08:39:20;;;;;;;86.18;32.13;;;;;;;7.91;100.00;98945.28;6000974;28;20042;-67
2022/09/28 08:42:34;;;;;;;22.27;9.30;;;;;;;7.83;100.00;98974.34;5995849;28;20039;-67
2022/09/28 08:45:34;;;;;;;25.13;10.52;;;;;;;7.69;100.00;98965.31;6010064;28;20697;-67
2022/09/28 08:48:46;;;;;;;22.88;9.07;;;;;;;7.67;100.00;98957.56;6006907;28;20038;-67
2022/09/28 08:51:48;;;;;;;51.33;20.63;;;;;;;7.54;100.00;98962.56;6013759;28;20034;-67
2022/09/28 08:54:48;;;;;;;8.82;4.53;;;;;;;7.58;100.00;98963.06;5997230;28;20482;-67
2022/09/28 08:57:47;;;;;;;13.88;7.25;;;;;;;7.69;100.00;98986.44;5995125;28;20441;-67
2022/09/28 09:00:53;;;;;;;10.48;5.25;;;;;;;7.67;100.00;98976.03;5996945;28;20047;-67
2022/09/28 09:03:48;;;;;;;7.43;4.28;;;;;;;7.57;100.00;98977.22;6000931;28;20034;-66
2022/09/28 09:06:58;;;;;;;14.35;5.95;;;;;;;7.66;100.00;98997.31;5997204;28;20035;-67
2022/09/28 09:10:27;;;;;;;13.48;6.75;;;;;;;7.53;100.00;98986.44;6004788;28;20034;-67
2022/09/28 09:13:31;;;;;;;18.45;8.80;;;;;;;7.67;100.00;98994.50;5994649;28;20628;-68
2022/09/28 09:16:55;;;;;;;10.40;5.13;;;;;;;7.76;100.00;98997.94;5996026;28;20387;-67
2022/09/28 09:20:06;;;;;;;11.50;6.13;;;;;;;7.71;100.00;98982.63;5996257;28;20077;-67
2022/09/28 09:23:23;;;;;;;7.35;4.75;;;;;;;7.87;100.00;99007.28;5995956;28;20513;-67
2022/09/28 09:26:37;;;;;;;42.65;15.02;;;;;;;7.58;100.00;98994.72;6013574;28;20045;-67
2022/09/28 09:29:47;;;;;;;4.90;2.13;;;;;;;7.45;100.00;98989.13;5995091;28;20118;-67
2022/09/28 09:32:56;;;;;;;13.57;7.25;;;;;;;7.68;100.00;99014.63;6007848;28;20070;-67
2022/09/28 09:36:18;;;;;;;12.38;6.18;;;;;;;7.59;100.00;98998.97;6010619;28;20121;-66
2022/09/28 09:39:31;;;;;;;20.55;9.20;;;;;;;7.73;100.00;99006.19;5997124;28;20061;-67
2022/09/28 09:42:43;;;;;;;9.68;4.32;;;;;;;7.68;100.00;98996.16;5994416;28;20558;-66
2022/09/28 09:45:56;;;;;;;7.97;4.25;;;;;;;7.92;100.00;99010.25;5994668;28;20234;-66
2022/09/28 09:49:21;;;;;;;12.30;7.13;;;;;;;7.92;100.00;99008.44;5994926;28;20701;-66
2022/09/28 09:52:44;;;;;;;9.55;5.45;;;;;;;8.02;100.00;99016.97;5993751;28;20062;-66
2022/09/28 09:55:43;;;;;;;8.85;4.93;;;;;;;8.09;100.00;99020.56;6016620;28;20042;-66
2022/09/28 09:58:45;;;;;;;5.40;3.70;;;;;;;8.08;100.00;99016.28;5992682;28;20041;-67
2022/09/28 10:01:40;;;;;;;5.75;3.80;;;;;;;8.14;100.00;99012.97;5994806;28;20058;-67
2022/09/28 10:04:39;;;;;;;5.55;3.25;;;;;;;8.07;100.00;99014.63;5996883;28;20033;-67
2022/09/28 10:07:56;;;;;;;8.20;4.78;;;;;;;8.37;100.00;99028.84;5992366;28;20030;-67
2022/09/28 10:10:55;;;;;;;6.97;4.63;;;;;;;8.31;100.00;99019.84;5996682;28;20031;-67
2022/09/28 10:13:50;;;;;;;6.82;4.07;;;;;;;8.41;100.00;99018.78;5989637;28;20050;-67
2022/09/28 10:16:47;;;;;;;0.83;0.60;;;;;;;8.63;100.00;99023.28;5995138;28;20187;-66
2022/09/28 10:19:43;;;;;;;2.03;0.88;;;;;;;8.33;100.00;99022.28;6014940;28;20022;-67
2022/09/28 10:22:39;;;;;;;3.08;1.67;;;;;;;8.66;100.00;99030.84;6007912;28;20120;-67
2022/09/28 10:25:36;;;;;;;2.40;1.38;;;;;;;8.88;100.00;99022.94;6005303;28;20147;-66
2022/09/28 10:28:56;;;;;;;2.97;1.75;;;;;;;8.78;100.00;99021.50;6001764;28;20184;-67
2022/09/28 10:31:53;;;;;;;3.10;1.00;;;;;;;8.79;100.00;99023.16;5997308;28;20114;-67
2022/09/28 10:34:50;;;;;;;6.55;1.33;;;;;;;8.84;100.00;99037.50;6001216;28;20133;-67
2022/09/28 10:38:05;;;;;;;1.55;0.90;;;;;;;8.95;100.00;99034.44;6006693;28;20534;-67
2022/09/28 10:41:09;;;;;;;5.18;2.33;;;;;;;9.09;100.00;99027.56;5993478;28;20030;-67
2022/09/28 10:44:09;;;;;;;2.60;1.00;;;;;;;9.53;100.00;99030.28;6000334;28;20035;-67
2022/09/28 10:47:13;;;;;;;7.25;3.40;;;;;;;9.78;97.86;99031.69;6016347;28;20027;-67
2022/09/28 10:50:21;;;;;;;6.15;1.85;;;;;;;9.57;99.27;99029.75;6001091;28;20074;-67
2022/09/28 10:53:19;;;;;;;2.72;1.77;;;;;;;9.66;100.00;99037.59;6017204;28;20513;-67
2022/09/28 10:56:20;;;;;;;4.53;3.53;;;;;;;9.35;98.22;99061.53;6001872;28;20438;-67
2022/09/28 10:59:27;;;;;;;2.60;1.10;;;;;;;9.83;99.14;99053.13;6002586;28;20126;-67
2022/09/28 11:02:25;;;;;;;1.08;0.50;;;;;;;10.01;98.99;99060.69;6001647;28;20404;-67
2022/09/28 11:05:23;;;;;;;0.88;0.50;;;;;;;9.87;99.00;99053.56;6002263;28;20394;-67
2022/09/28 11:08:27;;;;;;;0.98;0.68;;;;;;;9.95;100.00;99058.78;6000737;28;20039;-67
2022/09/28 11:11:23;;;;;;;2.60;0.70;;;;;;;10.00;99.39;99059.09;6000620;28;20042;-66
2022/09/28 11:14:25;;;;;;;1.90;0.60;;;;;;;10.09;98.68;99066.72;6002018;28;20086;-67
2022/09/28 11:17:39;;;;;;;0.95;0.70;;;;;;;9.96;99.65;99055.13;6000299;28;20042;-66
2022/09/28 11:20:34;;;;;;;0.50;0.40;;;;;;;10.16;99.44;99051.78;6001229;28;20043;-66
2022/09/28 11:23:30;;;;;;;1.70;0.52;;;;;;;10.06;99.21;99068.91;6001210;28;20110;-66
2022/09/28 11:26:31;;;;;;;1.27;1.00;;;;;;;9.95;99.18;99050.84;6002023;28;20030;-66
2022/09/28 11:29:42;;;;;;;1.83;0.50;;;;;;;10.18;99.26;99053.44;6000209;28;20042;-66
2022/09/28 11:32:41;;;;;;;2.47;0.75;;;;;;;10.03;98.08;99061.34;5999881;28;20039;-66
2022/09/28 11:35:45;;;;;;;1.35;0.70;;;;;;;10.01;98.92;99069.47;6001281;28;20053;-65
2022/09/28 11:38:59;;;;;;;1.00;0.90;;;;;;;10.01;99.27;99077.41;6018195;28;20030;-65
2022/09/28 11:42:05;;;;;;;2.58;1.40;;;;;;;10.00;99.98;99077.63;6004416;28;20045;-65
2022/09/28 11:45:31;;;;;;;2.72;1.50;;;;;;;10.05;100.00;99077.88;6001422;28;20471;-65
2022/09/28 11:48:29;;;;;;;1.70;1.00;;;;;;;10.07;100.00;99078.53;5982599;28;20113;-65
2022/09/28 11:51:33;;;;;;;1.40;0.93;;;;;;;9.86;100.00;99081.06;5999646;28;20125;-65
2022/09/28 11:54:39;;;;;;;1.45;0.90;;;;;;;9.98;100.00;99085.72;6000743;28;20049;-65
2022/09/28 11:57:37;;;;;;;1.50;0.70;;;;;;;9.54;99.59;99077.72;6000149;28;20112;-65
2022/09/28 12:00:39;;;;;;;2.42;0.88;;;;;;;9.71;100.00;99078.41;5999351;28;20041;-65
2022/09/28 12:03:49;;;;;;;7.07;1.80;;;;;;;9.95;100.00;99086.09;6001397;28;20027;-65
2022/09/28 12:06:50;;;;;;;1.55;1.00;;;;;;;9.91;100.00;99084.81;5998852;28;20043;-65
2022/09/28 12:09:57;;;;;;;3.20;1.00;;;;;;;9.64;99.07;99101.31;5996471;28;20034;-65
2022/09/28 12:13:19;;;;;;;2.25;1.40;;;;;;;10.01;100.00;99095.13;5999135;28;20047;-65
2022/09/28 12:16:17;;;;;;;1.83;0.90;;;;;;;10.10;100.00;99105.47;6004474;28;20413;-65
2022/09/28 12:19:20;;;;;;;2.35;1.10;;;;;;;10.09;100.00;99109.13;6019398;28;20041;-66
2022/09/28 12:22:35;;;;;;;1.38;1.05;;;;;;;10.12;99.90;99092.03;5998614;28;20173;-66
2022/09/28 12:25:38;;;;;;;1.35;0.90;;;;;;;10.20;99.88;99107.88;6000471;28;20031;-66
2022/09/28 12:28:47;;;;;;;1.65;0.80;;;;;;;9.65;100.00;99099.50;5998947;28;20041;-66
2022/09/28 12:31:55;;;;;;;1.65;1.08;;;;;;;9.39;100.00;99121.03;6006140;28;20061;-66
2022/09/28 12:34:51;;;;;;;7.65;1.50;;;;;;;9.06;100.00;99099.28;5999107;28;20497;-67
2022/09/28 12:38:11;;;;;;;2.90;1.50;;;;;;;8.97;100.00;99119.66;6001598;28;20066;-66
2022/09/28 12:41:18;;;;;;;3.45;2.13;;;;;;;8.87;100.00;99115.59;5998505;28;20023;-66
2022/09/28 12:44:45;;;;;;;4.85;2.05;;;;;;;8.83;100.00;99103.75;5997825;28;20030;-66
2022/09/28 12:48:07;;;;;;;4.30;2.33;;;;;;;8.96;100.00;99118.03;5999013;28;20394;-66
2022/09/28 12:51:12;;;;;;;2.10;1.08;;;;;;;8.78;100.00;99119.28;5989289;28;20482;-66
2022/09/28 12:54:33;;;;;;;2.60;1.20;;;;;;;8.83;100.00;99116.97;5998936;28;20118;-66
2022/09/28 12:57:47;;;;;;;4.20;1.20;;;;;;;8.95;100.00;99131.41;6014534;28;20067;-66
2022/09/28 13:01:15;;;;;;;2.53;1.10;;;;;;;8.84;100.00;99124.72;5987481;28;20238;-66
2022/09/28 13:04:24;;;;;;;1.48;0.88;;;;;;;8.85;100.00;99128.19;6010771;28;20035;-65
2022/09/28 13:07:32;;;;;;;2.00;0.90;;;;;;;9.05;100.00;99123.28;5998201;28;20122;-65
2022/09/28 13:10:36;;;;;;;2.17;0.80;;;;;;;9.12;100.00;99127.69;5999126;28;20051;-65
2022/09/28 13:13:50;;;;;;;1.55;0.80;;;;;;;9.13;100.00;99113.44;5999222;28;20070;-65
2022/09/28 13:16:56;;;;;;;1.83;0.90;;;;;;;9.30;100.00;99130.84;5996531;28;20041;-65
2022/09/28 13:20:12;;;;;;;2.70;1.20;;;;;;;9.13;100.00;99108.16;5998902;28;20026;-65
2022/09/28 13:23:14;;;;;;;2.65;1.30;;;;;;;9.32;100.00;99115.63;5995339;28;20511;-65
2022/09/28 13:26:24;;;;;;;3.13;1.48;;;;;;;9.55;100.00;99116.44;5996896;28;20078;-65
2022/09/28 13:29:21;;;;;;;2.80;1.50;;;;;;;9.66;100.00;99132.88;5996019;28;20038;-65
2022/09/28 13:32:17;;;;;;;2.60;1.60;;;;;;;9.81;100.00;99136.41;5994419;28;20058;-65
2022/09/28 13:35:18;;;;;;;3.42;1.58;;;;;;;9.80;100.00;99130.28;5995720;28;20126;-65
2022/09/28 13:38:16;;;;;;;3.58;2.22;;;;;;;9.90;100.00;99137.94;5996791;28;20037;-64
2022/09/28 13:41:13;;;;;;;5.05;2.30;;;;;;;9.52;99.90;99132.66;5998957;28;20030;-65
2022/09/28 13:44:11;;;;;;;5.85;2.78;;;;;;;9.41;100.00;99130.44;5994825;28;20059;-65
2022/09/28 13:47:25;;;;;;;5.78;2.92;;;;;;;9.40;100.00;99120.84;6016204;28;20751;-65
2022/09/28 13:50:46;;;;;;;6.93;2.90;;;;;;;9.36;100.00;99126.69;5998170;28;20050;-65
2022/09/28 13:54:19;;;;;;;6.72;3.28;;;;;;;9.54;100.00;99141.25;5993650;28;20463;-65
2022/09/28 13:57:36;;;;;;;10.35;4.32;;;;;;;9.47;100.00;99142.97;5995985;28;20027;-65
2022/09/28 14:00:44;;;;;;;7.18;3.40;;;;;;;9.37;100.00;99129.16;5995339;28;20142;-65
2022/09/28 14:03:54;;;;;;;7.95;3.28;;;;;;;9.44;100.00;99145.97;5994793;28;20034;-65
2022/09/28 14:06:56;;;;;;;8.18;3.72;;;;;;;9.50;100.00;99147.06;5995605;28;20027;-66
2022/09/28 14:10:18;;;;;;;8.50;4.30;;;;;;;9.51;100.00;99152.16;5993227;28;20578;-65
2022/09/28 14:13:39;;;;;;;9.38;3.83;;;;;;;9.59;99.97;99146.81;6001850;28;20035;-66
2022/09/28 14:16:35;;;;;;;8.27;4.40;;;;;;;9.61;100.00;99141.34;5995324;28;20038;-66